sensor_id;sensor_type;location;lat;lon;timestamp;pressure;altitude;pressure_sealevel;temperature;humidity
41306;BME280;27051;50.376;19.152;2023-02-14T00:01:14;99908.13;;;6.16;63.93
41306;BME280;27051;50.376;19.152;2023-02-14T00:03:40;99903.55;;;6.15;63.89
41306;BME280;27051;50.376;19.152;2023-02-14T00:06:08;99904.61;;;6.15;63.83
41306;BME280;27051;50.376;19.152;2023-02-14T00:08:35;99900.68;;;6.20;63.89
41306;BME280;27051;50.376;19.152;2023-02-14T00:11:02;99900.09;;;6.25;63.82
41306;BME280;27051;50.376;19.152;2023-02-14T00:13:29;99899.19;;;6.28;63.67
41306;BME280;27051;50.376;19.152;2023-02-14T00:15:55;99894.58;;;6.25;63.59
41306;BME280;27051;50.376;19.152;2023-02-14T00:18:21;99891.33;;;6.26;63.54
41306;BME280;27051;50.376;19.152;2023-02-14T00:20:47;99887.38;;;6.20;63.33
41306;BME280;27051;50.376;19.152;2023-02-14T00:23:13;99889.03;;;6.18;63.43
41306;BME280;27051;50.376;19.152;2023-02-14T00:25:39;99888.98;;;6.16;63.16
41306;BME280;27051;50.376;19.152;2023-02-14T00:28:06;99892.90;;;6.02;63.07
41306;BME280;27051;50.376;19.152;2023-02-14T00:30:33;99894.92;;;5.97;63.37
41306;BME280;27051;50.376;19.152;2023-02-14T00:32:59;99900.16;;;6.05;63.41
41306;BME280;27051;50.376;19.152;2023-02-14T00:35:25;99901.13;;;6.08;63.27
41306;BME280;27051;50.376;19.152;2023-02-14T00:37:52;99897.45;;;6.09;63.28
41306;BME280;27051;50.376;19.152;2023-02-14T00:40:18;99901.14;;;6.12;63.28
41306;BME280;27051;50.376;19.152;2023-02-14T00:42:53;99902.90;;;6.11;63.25
41306;BME280;27051;50.376;19.152;2023-02-14T00:45:19;99903.54;;;6.06;63.07
41306;BME280;27051;50.376;19.152;2023-02-14T00:47:45;99904.11;;;6.05;63.21
41306;BME280;27051;50.376;19.152;2023-02-14T00:50:12;99905.71;;;6.04;63.15
41306;BME280;27051;50.376;19.152;2023-02-14T00:52:38;99903.31;;;6.08;63.19
41306;BME280;27051;50.376;19.152;2023-02-14T00:55:04;99907.80;;;6.05;62.92
41306;BME280;27051;50.376;19.152;2023-02-14T00:57:30;99905.93;;;6.04;63.27
41306;BME280;27051;50.376;19.152;2023-02-14T00:59:56;99903.44;;;6.15;63.17
41306;BME280;27051;50.376;19.152;2023-02-14T01:02:23;99899.36;;;6.07;62.74
41306;BME280;27051;50.376;19.152;2023-02-14T01:04:49;99898.83;;;5.99;62.88
41306;BME280;27051;50.376;19.152;2023-02-14T01:07:15;99899.41;;;6.02;63.05
41306;BME280;27051;50.376;19.152;2023-02-14T01:09:41;99896.11;;;6.06;62.94
41306;BME280;27051;50.376;19.152;2023-02-14T01:12:07;99892.90;;;6.04;62.83
41306;BME280;27051;50.376;19.152;2023-02-14T01:14:33;99894.29;;;6.02;62.85
41306;BME280;27051;50.376;19.152;2023-02-14T01:17:00;99888.48;;;6.00;62.90
41306;BME280;27051;50.376;19.152;2023-02-14T01:19:26;99890.34;;;5.98;62.80
41306;BME280;27051;50.376;19.152;2023-02-14T01:21:55;99890.22;;;6.00;62.90
41306;BME280;27051;50.376;19.152;2023-02-14T01:24:21;99884.58;;;6.07;62.89
41306;BME280;27051;50.376;19.152;2023-02-14T01:26:48;99885.45;;;5.98;62.67
41306;BME280;27051;50.376;19.152;2023-02-14T01:29:16;99882.70;;;5.89;62.79
41306;BME280;27051;50.376;19.152;2023-02-14T01:31:43;99884.52;;;5.90;62.95
41306;BME280;27051;50.376;19.152;2023-02-14T01:34:10;99882.97;;;5.97;63.07
41306;BME280;27051;50.376;19.152;2023-02-14T01:36:38;99883.98;;;6.02;63.00
41306;BME280;27051;50.376;19.152;2023-02-14T01:39:11;99885.64;;;5.91;62.75
41306;BME280;27051;50.376;19.152;2023-02-14T01:41:41;99884.35;;;5.84;63.00
41306;BME280;27051;50.376;19.152;2023-02-14T01:44:53;99881.94;;;5.83;63.06
41306;BME280;27051;50.376;19.152;2023-02-14T01:46:54;99884.55;;;5.78;63.03
41306;BME280;27051;50.376;19.152;2023-02-14T01:49:33;99883.23;;;5.81;63.25
41306;BME280;27051;50.376;19.152;2023-02-14T01:54:38;99874.21;;;5.85;63.18
41306;BME280;27051;50.376;19.152;2023-02-14T01:57:09;99874.79;;;5.77;63.14
41306;BME280;27051;50.376;19.152;2023-02-14T01:59:42;99871.52;;;5.80;63.37
41306;BME280;27051;50.376;19.152;2023-02-14T02:02:12;99870.95;;;5.80;63.25
41306;BME280;27051;50.376;19.152;2023-02-14T02:04:45;99868.06;;;5.79;63.31
41306;BME280;27051;50.376;19.152;2023-02-14T02:07:26;99869.22;;;5.73;63.31
41306;BME280;27051;50.376;19.152;2023-02-14T02:09:58;99866.10;;;5.67;63.37
41306;BME280;27051;50.376;19.152;2023-02-14T02:12:27;99864.95;;;5.66;63.47
41306;BME280;27051;50.376;19.152;2023-02-14T02:14:54;99866.47;;;5.61;63.46
41306;BME280;27051;50.376;19.152;2023-02-14T02:23:15;99862.20;;;5.63;63.50
41306;BME280;27051;50.376;19.152;2023-02-14T02:43:24;99870.42;;;5.61;63.45
41306;BME280;27051;50.376;19.152;2023-02-14T02:46:08;99872.88;;;5.60;63.71
41306;BME280;27051;50.376;19.152;2023-02-14T02:48:44;99867.27;;;5.64;63.76
41306;BME280;27051;50.376;19.152;2023-02-14T02:51:20;99870.73;;;5.59;63.61
41306;BME280;27051;50.376;19.152;2023-02-14T02:54:19;99869.39;;;5.57;63.62
41306;BME280;27051;50.376;19.152;2023-02-14T02:56:52;99872.76;;;5.56;63.68
41306;BME280;27051;50.376;19.152;2023-02-14T02:59:23;99869.42;;;5.53;63.73
41306;BME280;27051;50.376;19.152;2023-02-14T03:04:20;99866.29;;;5.52;63.67
41306;BME280;27051;50.376;19.152;2023-02-14T03:06:48;99863.40;;;5.52;63.83
41306;BME280;27051;50.376;19.152;2023-02-14T03:17:49;99859.30;;;5.54;63.70
41306;BME280;27051;50.376;19.152;2023-02-14T03:32:15;99865.30;;;5.67;63.62
41306;BME280;27051;50.376;19.152;2023-02-14T03:35:06;99866.07;;;5.70;63.79
41306;BME280;27051;50.376;19.152;2023-02-14T03:40:08;99867.52;;;5.71;63.43
41306;BME280;27051;50.376;19.152;2023-02-14T03:42:43;99872.84;;;5.69;63.53
41306;BME280;27051;50.376;19.152;2023-02-14T03:45:18;99870.70;;;5.67;63.50
41306;BME280;27051;50.376;19.152;2023-02-14T03:47:46;99868.06;;;5.58;63.49
41306;BME280;27051;50.376;19.152;2023-02-14T03:50:19;99872.55;;;5.61;63.64
41306;BME280;27051;50.376;19.152;2023-02-14T03:52:48;99868.75;;;5.62;63.53
41306;BME280;27051;50.376;19.152;2023-02-14T03:55:21;99867.84;;;5.59;63.35
41306;BME280;27051;50.376;19.152;2023-02-14T04:00:39;99872.55;;;5.48;63.58
41306;BME280;27051;50.376;19.152;2023-02-14T04:03:09;99875.79;;;5.53;63.64
41306;BME280;27051;50.376;19.152;2023-02-14T04:05:37;99871.77;;;5.48;63.62
41306;BME280;27051;50.376;19.152;2023-02-14T04:08:04;99878.30;;;5.55;63.55
41306;BME280;27051;50.376;19.152;2023-02-14T04:10:31;99876.96;;;5.54;63.42
41306;BME280;27051;50.376;19.152;2023-02-14T04:12:58;99875.56;;;5.51;63.49
41306;BME280;27051;50.376;19.152;2023-02-14T04:15:24;99878.23;;;5.54;63.68
41306;BME280;27051;50.376;19.152;2023-02-14T04:17:50;99879.48;;;5.63;63.52
41306;BME280;27051;50.376;19.152;2023-02-14T04:20:17;99878.96;;;5.65;63.38
41306;BME280;27051;50.376;19.152;2023-02-14T04:22:43;99872.16;;;5.56;63.18
41306;BME280;27051;50.376;19.152;2023-02-14T04:25:09;99870.27;;;5.50;63.43
41306;BME280;27051;50.376;19.152;2023-02-14T04:27:35;99872.80;;;5.55;63.62
41306;BME280;27051;50.376;19.152;2023-02-14T04:30:02;99874.45;;;5.58;63.48
41306;BME280;27051;50.376;19.152;2023-02-14T04:32:28;99867.00;;;5.60;63.40
41306;BME280;27051;50.376;19.152;2023-02-14T04:34:54;99871.80;;;5.61;63.50
41306;BME280;27051;50.376;19.152;2023-02-14T04:37:20;99867.45;;;5.66;63.48
41306;BME280;27051;50.376;19.152;2023-02-14T04:39:47;99862.82;;;5.75;63.48
41306;BME280;27051;50.376;19.152;2023-02-14T04:42:13;99863.61;;;5.71;63.32
41306;BME280;27051;50.376;19.152;2023-02-14T04:44:40;99869.45;;;5.75;63.44
41306;BME280;27051;50.376;19.152;2023-02-14T04:47:07;99868.33;;;5.77;63.32
41306;BME280;27051;50.376;19.152;2023-02-14T04:49:34;99874.37;;;5.78;63.37
41306;BME280;27051;50.376;19.152;2023-02-14T04:52:01;99874.77;;;5.75;63.26
41306;BME280;27051;50.376;19.152;2023-02-14T04:54:29;99873.66;;;5.78;63.31
41306;BME280;27051;50.376;19.152;2023-02-14T04:56:55;99874.77;;;5.73;63.18
41306;BME280;27051;50.376;19.152;2023-02-14T04:59:22;99878.81;;;5.69;63.20
41306;BME280;27051;50.376;19.152;2023-02-14T05:01:49;99883.73;;;5.72;63.24
41306;BME280;27051;50.376;19.152;2023-02-14T05:04:17;99888.10;;;5.71;63.25
41306;BME280;27051;50.376;19.152;2023-02-14T05:06:43;99884.54;;;5.70;63.20
41306;BME280;27051;50.376;19.152;2023-02-14T05:09:09;99880.54;;;5.74;63.26
41306;BME280;27051;50.376;19.152;2023-02-14T05:11:35;99883.33;;;5.78;63.30
41306;BME280;27051;50.376;19.152;2023-02-14T05:14:03;99885.57;;;5.81;63.27
41306;BME280;27051;50.376;19.152;2023-02-14T05:16:31;99883.65;;;5.79;63.01
41306;BME280;27051;50.376;19.152;2023-02-14T05:18:58;99879.42;;;5.78;63.20
41306;BME280;27051;50.376;19.152;2023-02-14T05:21:24;99880.55;;;5.80;63.15
41306;BME280;27051;50.376;19.152;2023-02-14T05:23:50;99885.37;;;5.83;63.20
41306;BME280;27051;50.376;19.152;2023-02-14T05:26:16;99892.23;;;5.92;63.20
41306;BME280;27051;50.376;19.152;2023-02-14T05:28:43;99891.29;;;5.99;63.11
41306;BME280;27051;50.376;19.152;2023-02-14T05:31:11;99890.48;;;5.97;62.86
41306;BME280;27051;50.376;19.152;2023-02-14T05:33:39;99890.23;;;5.91;62.74
41306;BME280;27051;50.376;19.152;2023-02-14T05:36:07;99888.30;;;5.82;62.83
41306;BME280;27051;50.376;19.152;2023-02-14T05:38:34;99890.39;;;5.86;62.94
41306;BME280;27051;50.376;19.152;2023-02-14T05:41:00;99895.01;;;5.83;62.94
41306;BME280;27051;50.376;19.152;2023-02-14T05:43:26;99898.23;;;5.84;62.91
41306;BME280;27051;50.376;19.152;2023-02-14T05:45:52;99899.95;;;5.88;62.96
41306;BME280;27051;50.376;19.152;2023-02-14T05:48:19;99905.34;;;5.91;62.85
41306;BME280;27051;50.376;19.152;2023-02-14T05:50:45;99908.78;;;5.93;62.85
41306;BME280;27051;50.376;19.152;2023-02-14T05:53:12;99914.84;;;5.93;62.74
41306;BME280;27051;50.376;19.152;2023-02-14T05:55:38;99915.47;;;5.98;62.86
41306;BME280;27051;50.376;19.152;2023-02-14T05:58:05;99912.92;;;6.04;62.79
41306;BME280;27051;50.376;19.152;2023-02-14T06:00:31;99914.37;;;6.05;62.73
41306;BME280;27051;50.376;19.152;2023-02-14T06:02:57;99917.73;;;6.03;62.64
41306;BME280;27051;50.376;19.152;2023-02-14T06:05:25;99919.90;;;5.98;62.64
41306;BME280;27051;50.376;19.152;2023-02-14T06:07:52;99925.98;;;5.95;62.72
41306;BME280;27051;50.376;19.152;2023-02-14T06:10:19;99926.05;;;5.99;62.73
41306;BME280;27051;50.376;19.152;2023-02-14T06:12:51;99930.86;;;5.99;62.70
41306;BME280;27051;50.376;19.152;2023-02-14T06:15:18;99929.29;;;5.98;62.60
41306;BME280;27051;50.376;19.152;2023-02-14T06:17:44;99932.19;;;5.97;62.58
41306;BME280;27051;50.376;19.152;2023-02-14T06:20:11;99931.55;;;5.99;62.69
41306;BME280;27051;50.376;19.152;2023-02-14T06:22:37;99937.89;;;6.00;62.43
41306;BME280;27051;50.376;19.152;2023-02-14T06:25:04;99939.61;;;6.03;62.63
41306;BME280;27051;50.376;19.152;2023-02-14T06:27:32;99945.86;;;6.04;62.57
41306;BME280;27051;50.376;19.152;2023-02-14T06:30:01;99937.91;;;6.05;62.56
41306;BME280;27051;50.376;19.152;2023-02-14T06:32:29;99934.98;;;6.07;62.61
41306;BME280;27051;50.376;19.152;2023-02-14T06:34:57;99935.30;;;6.10;62.59
41306;BME280;27051;50.376;19.152;2023-02-14T06:37:23;99938.73;;;6.10;62.50
41306;BME280;27051;50.376;19.152;2023-02-14T06:39:49;99935.58;;;6.12;62.63
41306;BME280;27051;50.376;19.152;2023-02-14T06:42:15;99940.28;;;6.14;62.57
41306;BME280;27051;50.376;19.152;2023-02-14T06:44:42;99944.87;;;6.12;62.50
41306;BME280;27051;50.376;19.152;2023-02-14T06:47:08;99940.38;;;6.10;62.55
41306;BME280;27051;50.376;19.152;2023-02-14T06:49:34;99944.88;;;6.13;62.44
41306;BME280;27051;50.376;19.152;2023-02-14T06:52:01;99945.24;;;6.14;62.49
41306;BME280;27051;50.376;19.152;2023-02-14T06:54:28;99946.14;;;6.12;62.35
41306;BME280;27051;50.376;19.152;2023-02-14T06:56:54;99943.20;;;6.12;62.47
41306;BME280;27051;50.376;19.152;2023-02-14T06:59:21;99945.04;;;6.15;62.42
41306;BME280;27051;50.376;19.152;2023-02-14T07:01:47;99945.89;;;6.15;62.46
41306;BME280;27051;50.376;19.152;2023-02-14T07:04:13;99950.27;;;6.18;62.42
41306;BME280;27051;50.376;19.152;2023-02-14T07:06:39;99946.37;;;6.20;62.32
41306;BME280;27051;50.376;19.152;2023-02-14T07:09:06;99945.52;;;6.20;62.47
41306;BME280;27051;50.376;19.152;2023-02-14T07:11:32;99945.80;;;6.25;62.41
41306;BME280;27051;50.376;19.152;2023-02-14T07:14:02;99945.59;;;6.22;62.14
41306;BME280;27051;50.376;19.152;2023-02-14T07:16:29;99944.55;;;6.14;62.25
41306;BME280;27051;50.376;19.152;2023-02-14T07:18:55;99948.73;;;6.16;62.42
41306;BME280;27051;50.376;19.152;2023-02-14T07:21:21;99949.96;;;6.24;62.50
41306;BME280;27051;50.376;19.152;2023-02-14T07:23:47;99949.55;;;6.32;62.38
41306;BME280;27051;50.376;19.152;2023-02-14T07:26:14;99950.52;;;6.34;62.29
41306;BME280;27051;50.376;19.152;2023-02-14T07:28:40;99953.29;;;6.40;62.31
41306;BME280;27051;50.376;19.152;2023-02-14T07:31:06;99954.15;;;6.41;62.24
41306;BME280;27051;50.376;19.152;2023-02-14T07:33:32;99952.17;;;6.36;62.10
41306;BME280;27051;50.376;19.152;2023-02-14T07:36:03;99949.66;;;6.36;62.14
41306;BME280;27051;50.376;19.152;2023-02-14T07:38:30;99950.15;;;6.39;62.21
41306;BME280;27051;50.376;19.152;2023-02-14T07:40:57;99952.45;;;6.42;62.03
41306;BME280;27051;50.376;19.152;2023-02-14T07:43:23;99954.41;;;6.40;62.16
41306;BME280;27051;50.376;19.152;2023-02-14T07:45:49;99957.36;;;6.50;62.27
41306;BME280;27051;50.376;19.152;2023-02-14T07:48:15;99953.78;;;6.57;62.11
41306;BME280;27051;50.376;19.152;2023-02-14T07:50:42;99958.97;;;6.58;62.10
41306;BME280;27051;50.376;19.152;2023-02-14T07:53:08;99951.33;;;6.64;62.03
41306;BME280;27051;50.376;19.152;2023-02-14T07:55:35;99951.64;;;6.70;62.11
41306;BME280;27051;50.376;19.152;2023-02-14T07:58:03;99950.00;;;6.75;61.80
41306;BME280;27051;50.376;19.152;2023-02-14T08:00:29;99953.47;;;6.77;61.85
41306;BME280;27051;50.376;19.152;2023-02-14T08:02:55;99953.67;;;6.76;61.79
41306;BME280;27051;50.376;19.152;2023-02-14T08:05:22;99949.99;;;6.82;61.83
41306;BME280;27051;50.376;19.152;2023-02-14T08:07:48;99952.29;;;6.85;61.71
41306;BME280;27051;50.376;19.152;2023-02-14T08:10:14;99951.07;;;6.79;61.54
41306;BME280;27051;50.376;19.152;2023-02-14T08:12:40;99956.08;;;6.82;61.70
41306;BME280;27051;50.376;19.152;2023-02-14T08:15:07;99954.70;;;6.83;61.62
41306;BME280;27051;50.376;19.152;2023-02-14T08:17:33;99953.04;;;6.86;61.64
41306;BME280;27051;50.376;19.152;2023-02-14T08:19:59;99958.65;;;6.91;61.74
41306;BME280;27051;50.376;19.152;2023-02-14T08:22:25;99958.91;;;6.99;61.70
41306;BME280;27051;50.376;19.152;2023-02-14T08:24:52;99954.25;;;7.01;61.48
41306;BME280;27051;50.376;19.152;2023-02-14T08:27:18;99956.33;;;6.96;61.37
41306;BME280;27051;50.376;19.152;2023-02-14T08:29:44;99961.38;;;6.92;61.39
41306;BME280;27051;50.376;19.152;2023-02-14T08:32:10;99963.23;;;6.97;61.43
41306;BME280;27051;50.376;19.152;2023-02-14T08:34:36;99960.34;;;7.05;61.42
41306;BME280;27051;50.376;19.152;2023-02-14T08:37:02;99957.77;;;7.12;61.30
41306;BME280;27051;50.376;19.152;2023-02-14T08:39:29;99960.21;;;7.18;61.43
41306;BME280;27051;50.376;19.152;2023-02-14T08:41:55;99964.12;;;7.23;61.23
41306;BME280;27051;50.376;19.152;2023-02-14T08:44:21;99968.50;;;7.26;61.20
41306;BME280;27051;50.376;19.152;2023-02-14T08:46:47;99976.73;;;7.28;61.22
41306;BME280;27051;50.376;19.152;2023-02-14T08:49:13;99981.48;;;7.35;61.25
41306;BME280;27051;50.376;19.152;2023-02-14T08:51:40;99985.20;;;7.43;61.18
41306;BME280;27051;50.376;19.152;2023-02-14T08:54:06;99981.39;;;7.46;61.16
41306;BME280;27051;50.376;19.152;2023-02-14T08:56:32;99981.19;;;7.59;61.31
41306;BME280;27051;50.376;19.152;2023-02-14T08:58:58;99983.78;;;7.66;61.00
41306;BME280;27051;50.376;19.152;2023-02-14T09:01:24;99988.34;;;7.70;60.94
41306;BME280;27051;50.376;19.152;2023-02-14T09:03:51;99994.69;;;7.71;60.79
41306;BME280;27051;50.376;19.152;2023-02-14T09:06:17;99992.17;;;7.70;60.68
41306;BME280;27051;50.376;19.152;2023-02-14T09:08:43;99990.73;;;7.67;60.70
41306;BME280;27051;50.376;19.152;2023-02-14T09:11:14;99996.58;;;7.66;60.66
41306;BME280;27051;50.376;19.152;2023-02-14T09:13:41;99993.89;;;7.71;60.68
41306;BME280;27051;50.376;19.152;2023-02-14T09:16:09;99993.77;;;7.73;60.67
41306;BME280;27051;50.376;19.152;2023-02-14T09:18:36;99990.25;;;7.82;60.84
41306;BME280;27051;50.376;19.152;2023-02-14T09:21:07;99987.80;;;7.95;60.87
41306;BME280;27051;50.376;19.152;2023-02-14T09:23:33;99986.79;;;8.03;60.74
41306;BME280;27051;50.376;19.152;2023-02-14T09:26:05;99990.72;;;8.10;60.57
41306;BME280;27051;50.376;19.152;2023-02-14T09:28:32;99987.72;;;8.12;60.59
41306;BME280;27051;50.376;19.152;2023-02-14T09:31:14;99987.36;;;8.25;60.74
41306;BME280;27051;50.376;19.152;2023-02-14T09:33:41;99986.79;;;8.33;60.42
41306;BME280;27051;50.376;19.152;2023-02-14T09:36:07;99989.80;;;8.44;60.51
41306;BME280;27051;50.376;19.152;2023-02-14T09:38:34;99990.89;;;8.55;60.19
41306;BME280;27051;50.376;19.152;2023-02-14T09:41:04;99989.42;;;8.59;60.14
41306;BME280;27051;50.376;19.152;2023-02-14T09:43:45;99995.02;;;8.66;60.14
41306;BME280;27051;50.376;19.152;2023-02-14T09:46:14;99995.49;;;8.65;59.68
41306;BME280;27051;50.376;19.152;2023-02-14T09:48:45;99993.92;;;8.60;59.77
41306;BME280;27051;50.376;19.152;2023-02-14T09:51:21;99994.30;;;8.61;59.55
41306;BME280;27051;50.376;19.152;2023-02-14T09:54:00;100000.37;;;8.51;59.41
41306;BME280;27051;50.376;19.152;2023-02-14T09:59:13;99995.63;;;8.54;59.71
41306;BME280;27051;50.376;19.152;2023-02-14T10:01:49;99992.98;;;8.50;59.45
41306;BME280;27051;50.376;19.152;2023-02-14T10:06:57;99997.44;;;8.49;59.45
41306;BME280;27051;50.376;19.152;2023-02-14T10:12:21;99991.41;;;8.42;59.34
41306;BME280;27051;50.376;19.152;2023-02-14T10:14:59;99993.23;;;8.43;59.27
41306;BME280;27051;50.376;19.152;2023-02-14T10:17:37;99994.33;;;8.39;58.98
41306;BME280;27051;50.376;19.152;2023-02-14T10:22:55;99991.91;;;8.41;59.37
41306;BME280;27051;50.376;19.152;2023-02-14T10:25:32;99994.43;;;8.40;59.27
41306;BME280;27051;50.376;19.152;2023-02-14T10:28:00;99990.54;;;8.34;58.99
41306;BME280;27051;50.376;19.152;2023-02-14T10:30:35;99994.19;;;8.23;58.87
41306;BME280;27051;50.376;19.152;2023-02-14T10:33:22;99991.70;;;8.17;59.13
41306;BME280;27051;50.376;19.152;2023-02-14T10:35:59;99989.16;;;8.20;59.31
41306;BME280;27051;50.376;19.152;2023-02-14T10:38:56;99984.79;;;8.27;58.93
41306;BME280;27051;50.376;19.152;2023-02-14T10:41:28;99984.40;;;8.21;58.97
41306;BME280;27051;50.376;19.152;2023-02-14T10:44:08;99980.41;;;8.23;59.07
41306;BME280;27051;50.376;19.152;2023-02-14T10:46:43;99979.63;;;8.31;59.03
41306;BME280;27051;50.376;19.152;2023-02-14T10:52:03;99983.11;;;8.40;59.00
41306;BME280;27051;50.376;19.152;2023-02-14T10:54:41;99981.69;;;8.47;58.77
41306;BME280;27051;50.376;19.152;2023-02-14T11:00:05;99977.55;;;8.35;58.41
41306;BME280;27051;50.376;19.152;2023-02-14T11:02:35;99974.33;;;8.36;58.36
41306;BME280;27051;50.376;19.152;2023-02-14T11:05:03;99972.88;;;8.43;58.53
41306;BME280;27051;50.376;19.152;2023-02-14T11:07:30;99974.21;;;8.51;58.22
41306;BME280;27051;50.376;19.152;2023-02-14T11:09:56;99974.41;;;8.53;58.35
41306;BME280;27051;50.376;19.152;2023-02-14T11:12:39;99970.44;;;8.48;58.24
41306;BME280;27051;50.376;19.152;2023-02-14T11:17:43;99969.17;;;8.66;58.33
41306;BME280;27051;50.376;19.152;2023-02-14T11:20:23;99963.02;;;8.63;58.02
41306;BME280;27051;50.376;19.152;2023-02-14T11:22:49;99960.94;;;8.56;57.96
41306;BME280;27051;50.376;19.152;2023-02-14T11:25:29;99961.08;;;8.52;57.90
41306;BME280;27051;50.376;19.152;2023-02-14T11:28:07;99962.07;;;8.47;57.93
41306;BME280;27051;50.376;19.152;2023-02-14T11:30:39;99961.95;;;8.37;57.99
41306;BME280;27051;50.376;19.152;2023-02-14T11:33:11;99958.92;;;8.33;58.13
41306;BME280;27051;50.376;19.152;2023-02-14T11:35:38;99962.62;;;8.33;58.14
41306;BME280;27051;50.376;19.152;2023-02-14T11:38:06;99962.05;;;8.37;58.24
41306;BME280;27051;50.376;19.152;2023-02-14T11:40:53;99957.97;;;8.43;58.35
41306;BME280;27051;50.376;19.152;2023-02-14T11:43:33;99957.85;;;8.44;58.03
41306;BME280;27051;50.376;19.152;2023-02-14T11:48:31;99951.32;;;8.44;58.02
41306;BME280;27051;50.376;19.152;2023-02-14T11:51:07;99948.66;;;8.50;57.92
41306;BME280;27051;50.376;19.152;2023-02-14T11:53:54;99947.63;;;8.51;58.02
41306;BME280;27051;50.376;19.152;2023-02-14T11:56:22;99944.23;;;8.53;58.01
41306;BME280;27051;50.376;19.152;2023-02-14T11:59:01;99944.00;;;8.55;57.99
41306;BME280;27051;50.376;19.152;2023-02-14T12:01:34;99942.41;;;8.60;58.03
41306;BME280;27051;50.376;19.152;2023-02-14T12:04:05;99935.15;;;8.69;57.76
41306;BME280;27051;50.376;19.152;2023-02-14T12:06:34;99933.88;;;8.69;57.56
41306;BME280;27051;50.376;19.152;2023-02-14T12:11:57;99935.58;;;8.69;57.68
41306;BME280;27051;50.376;19.152;2023-02-14T12:14:27;99933.13;;;8.76;57.69
41306;BME280;27051;50.376;19.152;2023-02-14T12:17:01;99935.42;;;8.82;57.54
41306;BME280;27051;50.376;19.152;2023-02-14T12:19:39;99924.46;;;8.84;57.54
41306;BME280;27051;50.376;19.152;2023-02-14T12:22:12;99920.63;;;8.88;57.29
41306;BME280;27051;50.376;19.152;2023-02-14T12:24:53;99916.44;;;8.98;57.34
41306;BME280;27051;50.376;19.152;2023-02-14T12:27:44;99912.03;;;9.10;57.14
41306;BME280;27051;50.376;19.152;2023-02-14T12:30:15;99910.88;;;9.18;57.10
41306;BME280;27051;50.376;19.152;2023-02-14T12:32:49;99909.45;;;9.26;56.91
41306;BME280;27051;50.376;19.152;2023-02-14T12:35:35;99907.67;;;9.35;56.67
41306;BME280;27051;50.376;19.152;2023-02-14T12:38:13;99899.71;;;9.33;56.46
41306;BME280;27051;50.376;19.152;2023-02-14T12:43:51;99904.73;;;9.34;56.72
41306;BME280;27051;50.376;19.152;2023-02-14T12:46:28;99903.14;;;9.38;56.61
41306;BME280;27051;50.376;19.152;2023-02-14T12:49:07;99901.23;;;9.31;56.52
41306;BME280;27051;50.376;19.152;2023-02-14T12:59:54;99894.52;;;9.27;56.27
41306;BME280;27051;50.376;19.152;2023-02-14T13:05:49;99887.60;;;9.31;56.08
41306;BME280;27051;50.376;19.152;2023-02-14T13:17:29;99881.48;;;9.32;56.21
41306;BME280;27051;50.376;19.152;2023-02-14T13:20:26;99879.58;;;9.32;56.20
41306;BME280;27051;50.376;19.152;2023-02-14T13:22:48;99881.98;;;9.30;56.13
41306;BME280;27051;50.376;19.152;2023-02-14T13:25:35;99879.28;;;9.30;56.20
41306;BME280;27051;50.376;19.152;2023-02-14T13:28:06;99879.94;;;9.29;56.00
41306;BME280;27051;50.376;19.152;2023-02-14T13:30:35;99878.14;;;9.24;56.08
41306;BME280;27051;50.376;19.152;2023-02-14T13:33:08;99875.30;;;9.23;56.10
41306;BME280;27051;50.376;19.152;2023-02-14T13:35:40;99875.85;;;9.26;56.10
41306;BME280;27051;50.376;19.152;2023-02-14T13:38:09;99875.09;;;9.27;56.07
41306;BME280;27051;50.376;19.152;2023-02-14T13:40:38;99877.17;;;9.27;55.93
41306;BME280;27051;50.376;19.152;2023-02-14T13:43:05;99875.16;;;9.21;55.91
41306;BME280;27051;50.376;19.152;2023-02-14T13:48:03;99877.98;;;9.27;55.78
41306;BME280;27051;50.376;19.152;2023-02-14T13:50:32;99879.01;;;9.22;55.72
41306;BME280;27051;50.376;19.152;2023-02-14T13:52:59;99877.75;;;9.15;55.84
41306;BME280;27051;50.376;19.152;2023-02-14T13:55:32;99872.73;;;9.08;55.74
41306;BME280;27051;50.376;19.152;2023-02-14T13:58:12;99877.39;;;8.98;55.84
41306;BME280;27051;50.376;19.152;2023-02-14T14:00:42;99878.63;;;9.03;55.87
41306;BME280;27051;50.376;19.152;2023-02-14T14:05:56;99875.27;;;8.91;55.80
41306;BME280;27051;50.376;19.152;2023-02-14T14:10:51;99871.63;;;8.91;55.79
41306;BME280;27051;50.376;19.152;2023-02-14T14:14:00;99876.46;;;8.96;55.64
41306;BME280;27051;50.376;19.152;2023-02-14T14:16:30;99879.28;;;8.93;55.63
41306;BME280;27051;50.376;19.152;2023-02-14T14:21:43;99880.61;;;8.87;55.54
41306;BME280;27051;50.376;19.152;2023-02-14T14:25:03;99880.88;;;8.89;55.58
41306;BME280;27051;50.376;19.152;2023-02-14T14:27:16;99879.43;;;8.93;55.58
41306;BME280;27051;50.376;19.152;2023-02-14T14:29:48;99875.48;;;8.96;55.69
41306;BME280;27051;50.376;19.152;2023-02-14T14:34:49;99876.64;;;8.99;55.31
41306;BME280;27051;50.376;19.152;2023-02-14T14:37:18;99875.31;;;8.97;55.47
41306;BME280;27051;50.376;19.152;2023-02-14T14:39:51;99868.19;;;8.96;55.16
41306;BME280;27051;50.376;19.152;2023-02-14T14:42:18;99873.67;;;8.84;54.96
41306;BME280;27051;50.376;19.152;2023-02-14T14:44:48;99872.38;;;8.75;55.17
41306;BME280;27051;50.376;19.152;2023-02-14T14:47:22;99870.16;;;8.65;55.14
41306;BME280;27051;50.376;19.152;2023-02-14T14:49:51;99872.04;;;8.59;55.19
41306;BME280;27051;50.376;19.152;2023-02-14T14:52:31;99872.13;;;8.49;55.34
41306;BME280;27051;50.376;19.152;2023-02-14T14:54:59;99869.14;;;8.54;55.56
41306;BME280;27051;50.376;19.152;2023-02-14T14:57:27;99868.55;;;8.55;55.49
41306;BME280;27051;50.376;19.152;2023-02-14T15:00:29;99868.85;;;8.49;55.44
41306;BME280;27051;50.376;19.152;2023-02-14T15:02:57;99869.59;;;8.51;55.60
41306;BME280;27051;50.376;19.152;2023-02-14T15:05:38;99864.67;;;8.50;55.43
41306;BME280;27051;50.376;19.152;2023-02-14T15:08:27;99859.19;;;8.38;55.42
41306;BME280;27051;50.376;19.152;2023-02-14T15:13:30;99862.32;;;8.33;55.52